createdAt,value
2017-11-18T00:01:26.559Z,40.33
2017-11-18T00:03:53.841Z,50.03
2017-11-18T00:06:21.122Z,47.47
2017-11-18T00:08:48.408Z,36.03
2017-11-18T00:11:15.671Z,39.90
2017-11-18T00:13:42.964Z,30.83
2017-11-18T00:16:10.238Z,38.13
2017-11-18T00:18:37.527Z,39.83
2017-11-18T00:21:04.797Z,38.53
2017-11-18T00:23:32.093Z,72.13
2017-11-18T00:25:59.360Z,34.33
2017-11-18T00:28:26.651Z,29.33
2017-11-18T00:30:53.928Z,31.27
2017-11-18T00:33:21.232Z,60.07
2017-11-18T00:35:48.491Z,47.40
2017-11-18T00:38:15.790Z,30.70
2017-11-18T00:40:43.065Z,27.03
2017-11-18T00:43:10.327Z,27.03
2017-11-18T00:45:37.621Z,27.17
2017-11-18T00:48:04.889Z,29.07
2017-11-18T00:50:32.183Z,48.00
2017-11-18T00:52:59.451Z,27.30
2017-11-18T00:55:26.744Z,37.43
2017-11-18T00:57:54.009Z,26.80
2017-11-18T01:00:21.295Z,28.47
2017-11-18T01:02:48.564Z,37.87
2017-11-18T01:05:15.861Z,34.10
2017-11-18T01:07:43.123Z,34.60
2017-11-18T01:10:10.408Z,39.03
2017-11-18T01:12:37.680Z,30.73
2017-11-18T01:15:04.969Z,25.87
2017-11-18T01:17:32.244Z,39.23
2017-11-18T01:20:00.428Z,49.87
2017-11-18T01:22:27.700Z,35.07
2017-11-18T01:24:55.003Z,30.20
2017-11-18T01:27:22.272Z,34.13
2017-11-18T01:29:49.546Z,31.23
2017-11-18T01:32:16.829Z,24.77
2017-11-18T01:34:44.100Z,29.47
2017-11-18T01:37:11.386Z,28.13
2017-11-18T01:39:38.660Z,30.03
2017-11-18T01:42:05.948Z,39.10
2017-11-18T01:44:33.215Z,25.90
2017-11-18T01:47:00.506Z,33.60
2017-11-18T01:52:01.465Z,64.90
2017-11-18T01:54:28.730Z,32.47
2017-11-18T01:56:56.015Z,28.87
2017-11-18T01:59:23.281Z,27.57
2017-11-18T02:01:50.568Z,91.27
2017-11-18T02:04:17.840Z,30.00
2017-11-18T02:06:45.133Z,27.40
2017-11-18T02:09:12.399Z,28.10
2017-11-18T02:11:39.705Z,21.27
2017-11-18T02:14:06.975Z,24.10
2017-11-18T02:16:34.251Z,26.93
2017-11-18T02:19:01.543Z,27.87
2017-11-18T02:21:28.815Z,24.03
2017-11-18T02:23:56.127Z,24.43
2017-11-18T02:26:23.376Z,44.43
2017-11-18T02:28:50.757Z,50.53
2017-11-18T02:31:18.028Z,25.53
2017-11-18T02:33:45.316Z,35.03
2017-11-18T02:36:12.585Z,27.83
2017-11-18T02:38:39.875Z,67.00
2017-11-18T02:41:07.146Z,36.90
2017-11-18T02:43:34.442Z,34.77
2017-11-18T02:46:01.709Z,24.87
2017-11-18T02:48:29.002Z,26.20
2017-11-18T02:50:56.266Z,28.10
2017-11-18T02:53:23.555Z,29.37
2017-11-18T02:55:50.830Z,60.03
2017-11-18T02:58:18.135Z,107.30
2017-11-18T03:00:45.406Z,56.03
2017-11-18T03:03:12.707Z,55.00
2017-11-18T03:05:39.987Z,235.70
2017-11-18T03:08:07.258Z,310.00
2017-11-18T03:10:34.545Z,96.30
2017-11-18T03:13:01.810Z,52.60
2017-11-18T03:15:29.103Z,75.37
2017-11-18T03:17:56.377Z,363.00
2017-11-18T03:20:23.679Z,264.70
2017-11-18T03:22:50.952Z,94.37
2017-11-18T03:25:18.237Z,204.73
2017-11-18T03:27:45.507Z,57.47
2017-11-18T03:30:12.805Z,70.37
2017-11-18T03:32:40.078Z,35.03
2017-11-18T03:35:07.350Z,30.47
2017-11-18T03:37:34.635Z,19.13
2017-11-18T03:40:01.910Z,41.23
2017-11-18T03:42:29.200Z,29.97
2017-11-18T03:44:56.508Z,35.73
2017-11-18T03:47:23.755Z,40.00
2017-11-18T03:49:51.022Z,81.90
2017-11-18T03:52:18.308Z,67.20
2017-11-18T03:54:45.576Z,63.27
2017-11-18T03:59:46.607Z,15.03
2017-11-18T04:02:13.897Z,26.43
2017-11-18T04:04:41.156Z,12.20
2017-11-18T04:07:08.448Z,18.57
2017-11-18T04:09:35.720Z,20.77
2017-11-18T04:12:03.012Z,12.20
2017-11-18T04:14:30.272Z,16.10
2017-11-18T04:16:57.527Z,12.50
2017-11-18T04:19:24.807Z,9.77
2017-11-18T04:21:52.058Z,11.90
2017-11-18T04:24:19.350Z,11.00
2017-11-18T04:26:46.612Z,12.20
2017-11-18T04:29:13.896Z,11.97
2017-11-18T04:31:41.161Z,13.13
2017-11-18T04:34:08.441Z,10.83
2017-11-18T04:36:35.705Z,11.00
2017-11-18T04:39:02.992Z,12.00
2017-11-18T04:41:30.258Z,10.80
2017-11-18T04:43:57.546Z,14.23
2017-11-18T04:46:24.812Z,11.83
2017-11-18T04:48:52.089Z,12.40
2017-11-18T04:51:19.369Z,10.83
2017-11-18T04:53:46.633Z,13.33
2017-11-18T04:56:13.916Z,11.53
2017-11-18T04:58:41.185Z,10.00
2017-11-18T05:01:08.471Z,10.60
2017-11-18T05:03:35.731Z,12.17
2017-11-18T05:06:03.024Z,10.20
2017-11-18T05:08:30.290Z,12.87
2017-11-18T05:10:57.564Z,11.40
2017-11-18T05:13:24.829Z,11.13
2017-11-18T05:15:52.107Z,9.70
2017-11-18T05:18:19.369Z,10.17
2017-11-18T05:20:46.652Z,13.30
2017-11-18T05:23:13.917Z,10.43
2017-11-18T05:25:41.196Z,8.87
2017-11-18T05:28:08.453Z,8.90
2017-11-18T05:30:35.749Z,10.63
2017-11-18T05:33:03.003Z,9.60
2017-11-18T05:35:30.267Z,8.97
2017-11-18T05:37:57.536Z,8.30
2017-11-18T05:40:24.792Z,8.10
2017-11-18T05:42:52.080Z,10.60
2017-11-18T05:45:19.337Z,7.63
2017-11-18T05:47:46.618Z,12.73
2017-11-18T05:50:13.876Z,14.63
2017-11-18T05:52:41.152Z,9.67
2017-11-18T05:55:08.416Z,10.03
2017-11-18T05:57:35.695Z,8.07
2017-11-18T06:00:02.966Z,8.80
2017-11-18T06:02:30.244Z,12.50
2017-11-18T06:04:57.509Z,10.77
2017-11-18T06:07:24.789Z,8.27
2017-11-18T06:09:52.054Z,12.50
2017-11-18T06:12:19.350Z,11.93
2017-11-18T06:14:46.611Z,12.27
2017-11-18T06:17:13.873Z,10.00
2017-11-18T06:19:41.145Z,8.73
2017-11-18T06:22:08.409Z,8.30
2017-11-18T06:24:35.695Z,10.40
2017-11-18T06:27:02.957Z,6.67
2017-11-18T06:29:30.228Z,9.30
2017-11-18T06:31:57.489Z,9.57
2017-11-18T06:34:24.772Z,11.43
2017-11-18T06:36:52.037Z,9.10
2017-11-18T06:39:19.307Z,8.60
2017-11-18T06:41:46.571Z,8.40
2017-11-18T06:44:13.865Z,9.30
2017-11-18T06:46:41.122Z,15.70
2017-11-18T06:49:08.381Z,12.00
2017-11-18T06:51:35.668Z,13.83
2017-11-18T06:54:02.933Z,10.37
2017-11-18T06:56:30.219Z,12.03
2017-11-18T06:58:57.507Z,11.40
2017-11-18T07:01:24.778Z,10.03
2017-11-18T07:03:52.048Z,7.40
2017-11-18T07:06:19.350Z,12.33
2017-11-18T07:08:46.604Z,8.17
2017-11-18T07:11:13.864Z,12.30
2017-11-18T07:13:41.153Z,7.67
2017-11-18T07:16:08.409Z,11.30
2017-11-18T07:18:35.714Z,12.07
2017-11-18T07:21:02.977Z,11.10
2017-11-18T07:23:30.235Z,11.03
2017-11-18T07:25:57.529Z,15.10
2017-11-18T07:28:24.784Z,14.03
2017-11-18T07:30:52.083Z,10.40
2017-11-18T07:33:19.349Z,11.43
2017-11-18T07:35:46.623Z,12.67
2017-11-18T07:38:13.911Z,10.10
2017-11-18T07:40:41.205Z,10.00
2017-11-18T07:43:08.510Z,14.60
2017-11-18T07:45:35.771Z,11.67
2017-11-18T07:48:03.039Z,9.87
2017-11-18T07:50:30.316Z,12.90
2017-11-18T07:52:57.583Z,12.77
2017-11-18T07:55:24.885Z,15.57
2017-11-18T07:57:52.187Z,11.93
2017-11-18T08:00:19.444Z,13.50
2017-11-18T08:02:46.731Z,15.40
2017-11-18T08:05:14.033Z,8.77
2017-11-18T08:07:41.293Z,13.70
2017-11-18T08:10:08.555Z,11.43
2017-11-18T08:12:35.848Z,11.33
2017-11-18T08:15:03.108Z,17.53
2017-11-18T08:17:30.423Z,12.70
2017-11-18T08:19:57.729Z,12.80
2017-11-18T08:22:24.999Z,15.00
2017-11-18T08:24:52.259Z,11.50
2017-11-18T08:27:19.553Z,11.70
2017-11-18T08:29:46.822Z,19.50
2017-11-18T08:32:14.137Z,13.70
2017-11-18T08:34:41.393Z,17.93
2017-11-18T08:37:08.663Z,12.93
2017-11-18T08:39:35.956Z,16.27
2017-11-18T08:42:03.239Z,17.52
2017-11-18T08:44:30.530Z,15.10
2017-11-18T08:46:57.823Z,14.00
2017-11-18T08:49:25.092Z,12.37
2017-11-18T08:51:52.376Z,13.80
2017-11-18T08:54:19.660Z,17.00
2017-11-18T08:56:46.962Z,18.80
2017-11-18T08:59:14.215Z,13.63
2017-11-18T09:01:41.512Z,13.53
2017-11-18T09:04:08.855Z,15.30
2017-11-18T09:06:36.143Z,21.00
2017-11-18T09:09:03.409Z,18.47
2017-11-18T09:11:30.703Z,17.10
2017-11-18T09:13:57.972Z,12.73
2017-11-18T09:16:25.231Z,16.67
2017-11-18T09:18:52.522Z,16.13
2017-11-18T09:21:19.788Z,12.97
2017-11-18T09:23:47.082Z,23.97
2017-11-18T09:26:14.347Z,12.13
2017-11-18T09:28:41.627Z,13.90
2017-11-18T09:31:08.896Z,16.60
2017-11-18T09:33:36.195Z,18.53
2017-11-18T09:36:03.556Z,17.93
2017-11-18T09:38:30.848Z,21.63
2017-11-18T09:40:58.175Z,21.53
2017-11-18T09:43:25.439Z,22.10
2017-11-18T09:45:52.779Z,23.03
2017-11-18T09:48:20.072Z,19.70
2017-11-18T09:50:47.346Z,16.77
2017-11-18T09:53:14.740Z,19.43
2017-11-18T09:55:42.104Z,20.07
2017-11-18T09:58:09.372Z,17.10
2017-11-18T10:00:36.661Z,19.70
2017-11-18T10:03:03.964Z,14.53
2017-11-18T10:05:31.268Z,15.20
2017-11-18T10:07:58.527Z,16.50
2017-11-18T10:10:25.815Z,15.17
2017-11-18T10:12:53.107Z,16.83
2017-11-18T10:15:20.373Z,14.70
2017-11-18T10:17:47.647Z,17.27
2017-11-18T10:20:14.919Z,11.57
2017-11-18T10:22:42.195Z,17.23
2017-11-18T10:25:09.462Z,15.27
2017-11-18T10:27:36.751Z,13.67
2017-11-18T10:30:04.016Z,14.00
2017-11-18T10:32:31.309Z,12.97
2017-11-18T10:34:58.583Z,10.77
2017-11-18T10:37:25.847Z,9.87
2017-11-18T10:39:53.124Z,17.43
2017-11-18T10:42:20.385Z,14.93
2017-11-18T10:44:47.671Z,13.70
2017-11-18T10:47:14.930Z,11.80
2017-11-18T10:49:42.216Z,15.13
2017-11-18T10:52:09.478Z,9.80
2017-11-18T10:54:36.760Z,10.80
2017-11-18T10:57:04.021Z,11.17
2017-11-18T10:59:31.396Z,11.67
2017-11-18T11:01:58.665Z,10.07
2017-11-18T11:04:25.956Z,12.90
2017-11-18T11:06:53.215Z,10.23
2017-11-18T11:09:20.480Z,10.77
2017-11-18T11:11:47.759Z,10.73
2017-11-18T11:14:15.024Z,14.17
2017-11-18T11:16:42.308Z,9.27
2017-11-18T11:19:09.636Z,12.43
2017-11-18T11:21:36.990Z,13.80
2017-11-18T11:24:04.299Z,12.20
2017-11-18T11:26:31.595Z,12.30
2017-11-18T11:28:58.862Z,12.30
2017-11-18T11:31:26.208Z,11.70
2017-11-18T11:33:53.472Z,10.97
2017-11-18T11:36:20.753Z,16.30
2017-11-18T11:38:48.011Z,12.50
2017-11-18T11:41:15.320Z,14.50
2017-11-18T11:43:42.584Z,10.60
2017-11-18T11:46:09.935Z,14.00
2017-11-18T11:48:37.191Z,14.10
2017-11-18T11:51:04.451Z,6.43
2017-11-18T11:53:31.723Z,9.47
2017-11-18T11:55:58.990Z,12.07
2017-11-18T11:58:26.292Z,8.70
2017-11-18T12:00:53.547Z,9.53
2017-11-18T12:03:20.828Z,9.10
2017-11-18T12:05:48.083Z,13.63
2017-11-18T12:08:15.418Z,11.37
2017-11-18T12:10:42.698Z,10.33
2017-11-18T12:13:09.943Z,12.03
2017-11-18T12:15:37.224Z,17.37
2017-11-18T12:18:04.489Z,11.00
2017-11-18T12:20:31.772Z,17.63
2017-11-18T12:22:59.036Z,11.80
2017-11-18T12:25:26.328Z,11.83
2017-11-18T12:27:53.649Z,11.23
2017-11-18T12:30:21.000Z,13.47
2017-11-18T12:32:48.256Z,14.03
2017-11-18T12:35:15.540Z,12.57
2017-11-18T12:37:42.808Z,11.70
2017-11-18T12:40:10.090Z,12.23
2017-11-18T12:42:37.368Z,9.40
2017-11-18T12:45:04.648Z,14.90
2017-11-18T12:47:31.986Z,12.20
2017-11-18T12:49:59.331Z,12.57
2017-11-18T12:52:26.592Z,11.10
2017-11-18T12:54:54.708Z,12.77
2017-11-18T12:57:22.001Z,14.20
2017-11-18T12:59:49.253Z,13.57
2017-11-18T13:02:16.625Z,9.90
2017-11-18T13:04:43.885Z,13.50
2017-11-18T13:07:11.164Z,9.20
2017-11-18T13:09:38.423Z,9.57
2017-11-18T13:12:05.697Z,8.90
2017-11-18T13:14:32.993Z,7.93
2017-11-18T13:17:00.269Z,12.90
2017-11-18T13:19:27.603Z,15.00
2017-11-18T13:21:54.931Z,10.53
2017-11-18T13:24:22.196Z,14.63
2017-11-18T13:26:49.475Z,8.77
2017-11-18T13:29:16.736Z,6.43
2017-11-18T13:31:44.032Z,8.43
2017-11-18T13:34:11.288Z,7.17
2017-11-18T13:36:38.546Z,9.20
2017-11-18T13:39:05.825Z,10.47
2017-11-18T13:41:33.096Z,7.13
2017-11-18T13:44:00.376Z,8.67
2017-11-18T13:46:27.636Z,9.10
2017-11-18T13:48:54.912Z,12.23
2017-11-18T13:51:22.201Z,10.67
2017-11-18T13:53:49.490Z,10.00
2017-11-18T13:56:16.749Z,9.03
2017-11-18T13:58:44.028Z,14.13
2017-11-18T14:01:11.293Z,13.47
2017-11-18T14:03:38.594Z,8.77
2017-11-18T14:06:05.859Z,12.77
2017-11-18T14:08:33.138Z,10.33
2017-11-18T14:11:00.433Z,14.53
2017-11-18T14:13:27.708Z,13.27
2017-11-18T14:15:54.968Z,13.50
2017-11-18T14:18:22.268Z,15.30
2017-11-18T14:20:49.527Z,13.23
2017-11-18T14:23:16.794Z,11.83
2017-11-18T14:25:44.163Z,13.13
2017-11-18T14:28:11.434Z,16.23
2017-11-18T14:30:38.712Z,14.87
2017-11-18T14:33:05.972Z,13.07
2017-11-18T14:35:33.252Z,19.43
2017-11-18T14:38:00.517Z,14.73
2017-11-18T14:40:27.807Z,11.20
2017-11-18T14:42:55.068Z,16.40
2017-11-18T14:45:22.356Z,10.60
2017-11-18T14:47:49.631Z,13.50
2017-11-18T14:50:16.937Z,12.60
2017-11-18T14:52:44.200Z,14.40
2017-11-18T14:55:11.456Z,13.50
2017-11-18T14:57:39.159Z,10.37
2017-11-18T15:00:06.431Z,17.00
2017-11-18T15:02:33.713Z,13.10
2017-11-18T15:05:00.967Z,9.50
2017-11-18T15:07:28.249Z,14.43
2017-11-18T15:09:55.508Z,12.63
2017-11-18T15:12:22.786Z,12.50
2017-11-18T15:15:05.795Z,15.00
2017-11-18T15:17:38.727Z,15.33
2017-11-18T15:20:11.709Z,10.37
2017-11-18T15:22:58.773Z,11.80
2017-11-18T15:25:31.919Z,14.10
2017-11-18T15:28:04.969Z,9.20
2017-11-18T15:30:53.073Z,13.50
2017-11-18T15:33:22.915Z,11.40
2017-11-18T15:35:50.832Z,10.23
2017-11-18T15:38:24.014Z,12.43
2017-11-18T15:40:51.277Z,10.70
2017-11-18T15:43:21.256Z,13.23
2017-11-18T15:46:03.400Z,11.87
2017-11-18T15:48:36.525Z,11.17
2017-11-18T15:51:06.517Z,10.90
2017-11-18T15:53:39.360Z,8.67
2017-11-18T15:56:12.358Z,14.93
2017-11-18T15:58:40.151Z,12.90
2017-11-18T16:01:13.232Z,16.43
2017-11-18T16:03:46.179Z,14.00
2017-11-18T16:06:24.160Z,9.70
2017-11-18T16:08:51.435Z,12.03
2017-11-18T16:11:18.709Z,13.20
2017-11-18T16:13:46.044Z,9.70
2017-11-18T16:16:13.296Z,8.27
2017-11-18T16:18:40.672Z,9.93
2017-11-18T16:21:07.936Z,12.53
2017-11-18T16:23:35.196Z,6.30
2017-11-18T16:26:02.474Z,9.90
2017-11-18T16:28:29.797Z,8.03
2017-11-18T16:30:57.076Z,8.73
2017-11-18T16:33:24.332Z,9.73
2017-11-18T16:35:51.608Z,11.83
2017-11-18T16:38:18.869Z,8.37
2017-11-18T16:40:46.144Z,12.33
2017-11-18T16:43:13.401Z,6.17
2017-11-18T16:45:40.741Z,15.23
2017-11-18T16:48:07.995Z,10.63
2017-11-18T16:50:35.281Z,16.40
2017-11-18T16:53:02.540Z,9.23
2017-11-18T16:55:29.816Z,10.67
2017-11-18T16:57:57.075Z,14.10
2017-11-18T17:00:24.375Z,16.50
2017-11-18T17:02:51.740Z,11.50
2017-11-18T17:05:19.002Z,6.87
2017-11-18T17:07:46.272Z,8.77
2017-11-18T17:10:13.538Z,11.50
2017-11-18T17:12:40.823Z,12.00
2017-11-18T17:15:08.112Z,11.40
2017-11-18T17:17:35.392Z,11.90
2017-11-18T17:20:02.720Z,11.10
2017-11-18T17:22:29.992Z,8.13
2017-11-18T17:24:57.329Z,9.90
2017-11-18T17:27:24.611Z,13.87
2017-11-18T17:29:51.875Z,10.70
2017-11-18T17:32:19.192Z,11.87
2017-11-18T17:34:46.552Z,7.47
2017-11-18T17:37:13.839Z,10.17
2017-11-18T17:39:41.100Z,6.77
2017-11-18T17:42:08.356Z,8.50
2017-11-18T17:44:35.664Z,13.40
2017-11-18T17:47:03.030Z,11.27
2017-11-18T17:49:30.308Z,9.63
2017-11-18T17:51:57.567Z,10.23
2017-11-18T17:54:24.858Z,12.00
2017-11-18T17:56:52.125Z,11.33
2017-11-18T17:59:19.395Z,9.53
2017-11-18T18:01:46.655Z,10.63
2017-11-18T18:04:13.935Z,13.20
2017-11-18T18:06:41.197Z,9.97
2017-11-18T18:09:08.609Z,12.07
2017-11-18T18:11:35.958Z,8.37
2017-11-18T18:14:03.247Z,12.03
2017-11-18T18:16:30.505Z,10.00
2017-11-18T18:18:57.809Z,11.83
2017-11-18T18:21:25.068Z,13.63
2017-11-18T18:23:52.334Z,6.10
2017-11-18T18:26:19.615Z,9.80
2017-11-18T18:28:46.939Z,8.97
2017-11-18T18:31:14.222Z,13.13
2017-11-18T18:33:41.497Z,16.17
2017-11-18T18:36:08.799Z,12.50
2017-11-18T18:38:36.062Z,9.20
2017-11-18T18:41:03.640Z,12.30
2017-11-18T18:43:30.908Z,14.37
2017-11-18T18:45:58.188Z,8.87
2017-11-18T18:48:25.453Z,7.67
2017-11-18T18:50:52.715Z,11.63
2017-11-18T18:53:19.987Z,11.60
2017-11-18T18:55:47.254Z,13.20
2017-11-18T18:58:14.544Z,12.20
2017-11-18T19:00:41.845Z,12.40
2017-11-18T19:03:09.120Z,11.60
2017-11-18T19:05:36.398Z,15.00
2017-11-18T19:08:03.684Z,9.30
2017-11-18T19:10:30.945Z,16.10
2017-11-18T19:12:58.234Z,14.47
2017-11-18T19:15:25.500Z,17.43
2017-11-18T19:17:52.796Z,15.80
2017-11-18T19:20:20.056Z,10.80
2017-11-18T19:22:47.326Z,14.63
2017-11-18T19:25:14.612Z,16.20
2017-11-18T19:27:44.467Z,18.63
2017-11-18T19:30:16.363Z,13.10
2017-11-18T19:32:43.639Z,14.57
2017-11-18T19:35:10.917Z,11.73
2017-11-18T19:37:38.187Z,14.63
2017-11-18T19:40:05.468Z,12.30
2017-11-18T19:42:32.732Z,14.17
2017-11-18T19:45:00.008Z,11.70
2017-11-18T19:47:27.273Z,12.10
2017-11-18T19:49:54.595Z,16.17
2017-11-18T19:52:21.831Z,12.17
2017-11-18T19:54:49.094Z,10.77
2017-11-18T19:57:16.375Z,15.37
2017-11-18T19:59:43.648Z,16.97
2017-11-18T20:02:10.938Z,16.10
2017-11-18T20:04:38.191Z,17.53
2017-11-18T20:07:05.479Z,15.03
2017-11-18T20:09:33.317Z,12.93
2017-11-18T20:12:00.606Z,11.47
2017-11-18T20:14:27.863Z,10.37
2017-11-18T20:16:55.151Z,11.83
2017-11-18T20:19:22.420Z,12.17
2017-11-18T20:21:49.700Z,15.80
2017-11-18T20:24:16.963Z,12.70
2017-11-18T20:26:44.269Z,14.50
2017-11-18T20:29:11.541Z,13.47
2017-11-18T20:31:38.805Z,15.93
2017-11-18T20:34:06.085Z,13.10
2017-11-18T20:36:33.352Z,11.57
2017-11-18T20:39:00.640Z,16.97
2017-11-18T20:41:27.915Z,15.93
2017-11-18T20:43:55.196Z,15.30
2017-11-18T20:46:22.459Z,11.90
2017-11-18T20:48:49.743Z,14.63
2017-11-18T20:51:17.016Z,13.43
2017-11-18T20:53:44.296Z,11.80
2017-11-18T20:56:11.556Z,14.80
2017-11-18T20:58:38.872Z,14.50
2017-11-18T21:01:06.133Z,15.10
2017-11-18T21:03:33.396Z,14.97
2017-11-18T21:06:00.680Z,12.70
2017-11-18T21:08:27.953Z,16.50
2017-11-18T21:10:55.240Z,13.10
2017-11-18T21:13:22.504Z,14.07
2017-11-18T21:15:49.788Z,16.63
2017-11-18T21:18:17.082Z,16.07
2017-11-18T21:20:44.344Z,13.20
2017-11-18T21:23:14.311Z,12.30
2017-11-18T21:25:41.760Z,15.10
2017-11-18T21:28:09.026Z,13.53
2017-11-18T21:30:36.316Z,14.13
2017-11-18T21:33:03.593Z,15.43
2017-11-18T21:35:30.885Z,16.20
2017-11-18T21:37:58.149Z,16.17
2017-11-18T21:40:25.432Z,16.30
2017-11-18T21:42:52.709Z,15.33
2017-11-18T21:45:19.979Z,16.40
2017-11-18T21:47:47.260Z,16.70
2017-11-18T21:50:14.528Z,17.73
2017-11-18T21:52:41.815Z,16.47
2017-11-18T21:55:09.093Z,19.10
2017-11-18T21:57:36.372Z,19.20
2017-11-18T22:00:03.644Z,19.53
2017-11-18T22:02:30.936Z,15.37
2017-11-18T22:04:58.205Z,17.30
2017-11-18T22:07:25.491Z,21.80
2017-11-18T22:09:52.769Z,20.90
2017-11-18T22:12:20.048Z,16.17
2017-11-18T22:14:47.316Z,18.70
2017-11-18T22:17:14.612Z,14.33
2017-11-18T22:19:41.887Z,16.33
2017-11-18T22:22:09.177Z,16.07
2017-11-18T22:24:36.445Z,17.03
2017-11-18T22:27:03.717Z,16.23
2017-11-18T22:29:31.028Z,16.30
2017-11-18T22:31:58.299Z,19.10
2017-11-18T22:34:25.594Z,15.37
2017-11-18T22:36:52.870Z,15.20
2017-11-18T22:39:20.154Z,21.30
2017-11-18T22:41:47.423Z,18.80
2017-11-18T22:44:14.721Z,15.63
2017-11-18T22:46:41.986Z,11.00
2017-11-18T22:49:09.271Z,13.37
2017-11-18T22:51:36.533Z,11.97
2017-11-18T22:54:03.872Z,12.77
2017-11-18T22:56:31.131Z,13.27
2017-11-18T22:58:58.402Z,11.40
2017-11-18T23:01:25.681Z,11.17
2017-11-18T23:03:53.005Z,13.80
2017-11-18T23:06:20.269Z,9.37
2017-11-18T23:08:47.528Z,10.63
2017-11-18T23:11:14.826Z,10.80
2017-11-18T23:13:42.089Z,12.93
2017-11-18T23:16:09.393Z,9.73
2017-11-18T23:18:36.653Z,10.67
2017-11-18T23:21:03.919Z,10.13
2017-11-18T23:23:31.198Z,11.73
2017-11-18T23:25:58.463Z,12.60
2017-11-18T23:28:25.761Z,10.47
2017-11-18T23:30:53.022Z,10.83
2017-11-18T23:33:20.296Z,11.20
2017-11-18T23:35:47.566Z,10.63
2017-11-18T23:38:14.844Z,10.60
2017-11-18T23:40:42.100Z,8.97
2017-11-18T23:43:09.380Z,10.17
2017-11-18T23:45:36.988Z,8.90
2017-11-18T23:48:04.244Z,11.00
2017-11-18T23:50:31.520Z,7.83
2017-11-18T23:52:58.786Z,11.70
2017-11-18T23:55:26.064Z,9.13
2017-11-18T23:57:53.325Z,12.10
